Terminal Aerodrome Forecast
Issued by NWS

Home | Current Version | Previous Version | Text Only | Print | Product List | Glossary On
Versions: 1 2 3 4 5 6 7 8 9 10 11 12 13 14 15 16 17 18 19 20 21 22 23 24 25 26 27 28 29 30 31 32 33
000
FTUS44 KHGX 191732
TAFCXO
TAF
KCXO 191732Z 1918/2018 17015G25KT P6SM SCT025 BKN035
     FM200200 16014KT P6SM SCT008 BKN015
     FM200600 15010KT 6SM BR SCT008 OVC012
      TEMPO 2011/2014 4SM BR BKN008
     FM201500 16014G22KT P6SM VCSH BKN012 OVC018=

USA.gov is the U.S. government's official web portal to all federal, state and local government web resources and services.